createdAt,value
2023-03-15T00:01:56.444Z,92.55
2023-03-15T00:04:26.484Z,92.59
2023-03-15T00:06:56.591Z,92.70
2023-03-15T00:09:26.408Z,92.60
2023-03-15T00:11:56.947Z,92.69
2023-03-15T00:14:29.475Z,92.66
2023-03-15T00:16:59.305Z,92.58
2023-03-15T00:19:29.140Z,92.65
2023-03-15T00:21:59.018Z,92.60
2023-03-15T00:24:28.891Z,92.64
2023-03-15T00:26:58.680Z,92.57
2023-03-15T00:29:34.406Z,92.45
2023-03-15T00:32:07.296Z,92.19
2023-03-15T00:34:37.171Z,92.34
2023-03-15T00:37:06.967Z,92.19
2023-03-15T00:39:37.975Z,92.14
2023-03-15T00:42:08.167Z,92.03
2023-03-15T00:44:40.761Z,91.96
2023-03-15T00:47:10.925Z,91.93
2023-03-15T00:49:41.044Z,92.04
2023-03-15T00:52:12.697Z,92.11
2023-03-15T00:54:42.495Z,92.35
2023-03-15T00:57:12.455Z,92.33
2023-03-15T00:59:45.101Z,92.40
2023-03-15T01:02:15.479Z,92.53
2023-03-15T01:04:46.827Z,92.63
2023-03-15T01:07:16.758Z,92.64
2023-03-15T01:09:48.558Z,92.73
2023-03-15T01:12:18.586Z,93.01
2023-03-15T01:14:51.026Z,93.10
2023-03-15T01:17:20.832Z,93.16
2023-03-15T01:19:51.689Z,93.10
2023-03-15T01:22:21.585Z,93.23
2023-03-15T01:24:51.397Z,93.16
2023-03-15T01:27:21.277Z,93.24
2023-03-15T01:29:56.222Z,93.27
2023-03-15T01:32:26.153Z,93.31
2023-03-15T01:34:56.038Z,93.31
2023-03-15T01:37:26.725Z,93.41
2023-03-15T01:39:56.592Z,93.41
2023-03-15T01:42:26.442Z,93.33
2023-03-15T01:45:03.968Z,93.37
2023-03-15T01:47:33.814Z,93.38
2023-03-15T01:50:09.086Z,93.30
2023-03-15T01:52:42.267Z,93.27
2023-03-15T01:55:16.345Z,93.29
2023-03-15T01:57:49.647Z,93.10
2023-03-15T02:00:23.544Z,92.93
2023-03-15T02:02:58.562Z,93.09
2023-03-15T02:05:32.900Z,92.82
2023-03-15T02:08:03.714Z,92.90
2023-03-15T02:10:38.330Z,92.74
2023-03-15T02:13:10.284Z,92.86
2023-03-15T02:15:46.993Z,92.69
2023-03-15T02:18:18.076Z,92.66
2023-03-15T02:20:57.038Z,92.65
2023-03-15T02:23:30.345Z,92.58
2023-03-15T02:26:10.132Z,92.54
2023-03-15T02:28:44.075Z,92.25
2023-03-15T02:31:14.057Z,92.35
2023-03-15T02:33:47.812Z,92.24
2023-03-15T02:36:21.695Z,92.26
2023-03-15T02:38:52.673Z,92.31
2023-03-15T02:41:29.540Z,92.15
2023-03-15T02:44:09.766Z,92.26
2023-03-15T02:46:40.775Z,92.29
2023-03-15T02:49:11.379Z,92.26
2023-03-15T02:51:41.228Z,92.19
2023-03-15T02:54:11.034Z,92.02
2023-03-15T02:56:41.209Z,92.22
2023-03-15T02:59:14.154Z,92.15
2023-03-15T03:01:46.070Z,92.02
2023-03-15T03:04:15.869Z,92.06
2023-03-15T03:06:47.521Z,92.14
2023-03-15T03:09:17.278Z,92.18
2023-03-15T03:11:47.219Z,92.08
2023-03-15T03:14:19.677Z,92.12
2023-03-15T03:16:50.241Z,92.06
2023-03-15T03:19:25.749Z,92.14
2023-03-15T03:21:56.894Z,91.98
2023-03-15T03:24:27.339Z,92.04
2023-03-15T03:26:58.713Z,91.84
2023-03-15T03:29:31.142Z,91.64
2023-03-15T03:32:01.046Z,91.58
2023-03-15T03:34:31.673Z,91.51
2023-03-15T03:37:01.541Z,91.19
2023-03-15T03:39:31.434Z,90.98
2023-03-15T03:42:01.207Z,90.94
2023-03-15T03:44:33.732Z,90.71
2023-03-15T03:47:03.589Z,90.46
2023-03-15T03:49:33.401Z,90.31
2023-03-15T03:52:03.494Z,90.12
2023-03-15T03:54:33.539Z,90.00
2023-03-15T03:57:06.425Z,89.79
2023-03-15T03:59:38.805Z,89.62
2023-03-15T04:02:08.862Z,89.44
2023-03-15T04:04:41.418Z,89.47
2023-03-15T04:07:12.934Z,89.23
2023-03-15T04:09:42.694Z,89.08
2023-03-15T04:12:13.136Z,88.88
2023-03-15T04:14:45.718Z,88.84
2023-03-15T04:17:15.519Z,88.69
2023-03-15T04:19:47.166Z,88.68
2023-03-15T04:22:17.352Z,88.61
2023-03-15T04:24:50.794Z,88.66
2023-03-15T04:27:22.873Z,88.55
2023-03-15T04:29:56.205Z,88.41
2023-03-15T04:32:26.038Z,88.41
2023-03-15T04:34:56.094Z,88.40
2023-03-15T04:37:28.907Z,88.39
2023-03-15T04:39:58.810Z,88.50
2023-03-15T04:42:29.016Z,88.49
2023-03-15T04:45:04.599Z,88.27
2023-03-15T04:47:34.468Z,88.35
2023-03-15T04:50:04.354Z,88.29
2023-03-15T04:52:34.187Z,88.48
2023-03-15T04:55:04.312Z,88.44
2023-03-15T04:57:37.171Z,88.52
2023-03-15T05:00:13.133Z,88.65
2023-03-15T05:02:43.240Z,88.60
2023-03-15T05:05:14.748Z,88.70
2023-03-15T05:07:44.554Z,88.70
2023-03-15T05:10:16.180Z,88.76
2023-03-15T05:12:45.994Z,88.72
2023-03-15T05:15:18.665Z,88.86
2023-03-15T05:17:49.786Z,88.79
2023-03-15T05:20:20.068Z,88.71
2023-03-15T05:22:49.932Z,88.73
2023-03-15T05:25:22.825Z,88.86
2023-03-15T05:27:53.046Z,88.65
2023-03-15T05:30:25.543Z,88.77
2023-03-15T05:32:55.462Z,88.83
2023-03-15T05:35:26.986Z,88.79
2023-03-15T05:37:58.643Z,88.72
2023-03-15T05:40:30.069Z,88.87
2023-03-15T05:42:59.992Z,88.98
2023-03-15T05:45:34.795Z,88.99
2023-03-15T05:48:04.644Z,89.06
2023-03-15T05:50:34.985Z,88.91
2023-03-15T05:53:05.018Z,89.08
2023-03-15T05:55:36.278Z,89.08
2023-03-15T05:58:06.084Z,89.07
2023-03-15T06:00:38.435Z,89.38
2023-03-15T06:03:09.803Z,89.40
2023-03-15T06:05:39.754Z,89.25
2023-03-15T06:08:09.558Z,89.57
2023-03-15T06:10:39.449Z,89.64
2023-03-15T06:13:09.496Z,89.63
2023-03-15T06:15:41.862Z,89.83
2023-03-15T06:18:11.672Z,89.85
2023-03-15T06:20:41.496Z,90.06
2023-03-15T06:23:11.303Z,90.08
2023-03-15T06:25:41.053Z,90.43
2023-03-15T06:28:10.887Z,90.50
2023-03-15T06:30:43.887Z,90.44
2023-03-15T06:33:13.841Z,90.46
2023-03-15T06:35:47.320Z,90.79
2023-03-15T06:38:17.231Z,90.80
2023-03-15T06:40:47.220Z,90.72
2023-03-15T06:43:19.667Z,90.93
2023-03-15T06:45:53.698Z,91.16
2023-03-15T06:48:23.511Z,91.34
2023-03-15T06:50:53.355Z,91.36
2023-03-15T06:53:23.469Z,91.49
2023-03-15T06:55:53.519Z,91.61
2023-03-15T06:58:23.301Z,91.71
2023-03-15T07:00:57.253Z,91.88
2023-03-15T07:03:27.203Z,91.64
2023-03-15T07:05:57.020Z,92.06
2023-03-15T07:08:28.103Z,92.12
2023-03-15T07:10:57.924Z,91.95
2023-03-15T07:13:27.732Z,92.06
2023-03-15T07:16:00.273Z,92.28
2023-03-15T07:18:54.421Z,92.26
2023-03-15T07:21:42.112Z,92.57
2023-03-15T07:24:13.676Z,92.47
2023-03-15T07:26:43.788Z,92.76
2023-03-15T07:29:14.914Z,92.81
2023-03-15T07:31:47.592Z,92.95
2023-03-15T07:34:17.535Z,93.04
2023-03-15T07:36:47.340Z,93.20
2023-03-15T07:39:17.700Z,93.36
2023-03-15T07:41:47.759Z,93.48
2023-03-15T07:44:18.035Z,93.66
2023-03-15T07:46:50.552Z,93.96
2023-03-15T07:49:21.265Z,94.10
2023-03-15T07:51:51.669Z,94.23
2023-03-15T07:54:24.251Z,94.20
2023-03-15T07:56:54.036Z,94.18
2023-03-15T07:59:23.850Z,94.20
2023-03-15T08:01:56.232Z,94.27
2023-03-15T08:04:26.021Z,94.30
2023-03-15T08:06:55.791Z,94.15
2023-03-15T08:09:25.605Z,94.18
2023-03-15T08:11:55.374Z,94.15
2023-03-15T08:14:25.157Z,94.00
2023-03-15T08:16:57.655Z,93.95
2023-03-15T08:19:27.681Z,93.65
2023-03-15T08:21:57.582Z,93.66
2023-03-15T08:24:30.207Z,93.49
2023-03-15T08:29:53.412Z,93.01
2023-03-15T08:32:26.048Z,92.86
2023-03-15T08:34:56.055Z,92.55
2023-03-15T08:37:25.930Z,92.20
2023-03-15T08:40:01.086Z,91.83
2023-03-15T08:42:31.184Z,91.30
2023-03-15T08:45:02.300Z,90.86
2023-03-15T08:47:35.488Z,90.30
2023-03-15T08:50:05.921Z,89.74
2023-03-15T08:52:36.493Z,89.20
2023-03-15T08:55:06.818Z,88.76
2023-03-15T08:57:36.682Z,88.26
2023-03-15T09:00:10.603Z,87.75
2023-03-15T09:02:43.069Z,87.26
2023-03-15T09:05:13.796Z,86.63
2023-03-15T09:07:44.266Z,86.14
2023-03-15T09:10:16.170Z,85.70
2023-03-15T09:12:46.466Z,85.22
2023-03-15T09:15:17.157Z,84.92
2023-03-15T09:17:51.690Z,84.56
2023-03-15T09:20:24.240Z,84.16
2023-03-15T09:22:55.266Z,83.85
2023-03-15T09:25:25.846Z,83.47
2023-03-15T09:27:56.395Z,83.17
2023-03-15T09:30:26.828Z,82.65
2023-03-15T09:32:59.262Z,82.36
2023-03-15T09:35:29.279Z,82.04
2023-03-15T09:37:59.127Z,81.66
2023-03-15T09:40:31.172Z,81.33
2023-03-15T09:43:16.256Z,81.03
2023-03-15T09:46:05.919Z,80.79
2023-03-15T09:48:43.773Z,80.49
2023-03-15T09:51:19.224Z,80.27
2023-03-15T09:53:55.438Z,80.03
2023-03-15T09:56:30.627Z,79.73
2023-03-15T09:59:03.155Z,79.46
2023-03-15T10:01:35.711Z,79.18
2023-03-15T10:04:13.204Z,79.02
2023-03-15T10:06:46.269Z,78.86
2023-03-15T10:09:26.890Z,78.62
2023-03-15T10:12:05.891Z,78.39
2023-03-15T10:14:59.806Z,78.22
2023-03-15T10:17:40.823Z,78.02
2023-03-15T10:20:19.036Z,77.82
2023-03-15T10:22:55.777Z,77.82
2023-03-15T10:25:28.722Z,77.54
2023-03-15T10:28:02.519Z,77.48
2023-03-15T10:30:34.456Z,77.31
2023-03-15T10:33:06.303Z,77.17
2023-03-15T10:35:38.808Z,77.04
2023-03-15T10:38:18.270Z,76.84
2023-03-15T10:40:54.222Z,76.76
2023-03-15T10:43:26.220Z,76.57
2023-03-15T10:46:05.143Z,76.31
2023-03-15T10:48:37.719Z,76.12
2023-03-15T10:51:21.873Z,75.89
2023-03-15T10:53:56.763Z,75.63
2023-03-15T10:56:29.165Z,75.40
2023-03-15T10:59:12.425Z,75.22
2023-03-15T11:01:44.036Z,74.87
2023-03-15T11:04:22.245Z,74.57
2023-03-15T11:07:04.356Z,74.30
2023-03-15T11:09:43.613Z,74.01
2023-03-15T11:12:19.593Z,73.75
2023-03-15T11:14:52.639Z,73.51
2023-03-15T11:17:25.892Z,73.43
2023-03-15T11:20:01.002Z,73.19
2023-03-15T11:22:35.436Z,72.96
2023-03-15T11:25:05.871Z,72.83
2023-03-15T11:27:35.774Z,72.72
2023-03-15T11:30:05.952Z,72.48
2023-03-15T11:32:36.168Z,72.18
2023-03-15T11:35:09.466Z,72.15
2023-03-15T11:37:49.032Z,71.99
2023-03-15T11:40:23.934Z,71.90
2023-03-15T11:42:59.076Z,71.91
2023-03-15T11:45:37.265Z,71.80
2023-03-15T11:48:14.414Z,71.88
2023-03-15T11:50:44.380Z,71.55
2023-03-15T11:53:20.070Z,71.47
2023-03-15T11:55:53.721Z,71.30
2023-03-15T11:58:32.483Z,71.19
2023-03-15T12:01:05.023Z,71.15
2023-03-15T12:03:46.952Z,71.03
2023-03-15T12:06:39.128Z,70.92
2023-03-15T12:09:38.863Z,70.97
2023-03-15T12:12:38.468Z,70.93
2023-03-15T12:15:18.562Z,70.71
2023-03-15T12:17:52.706Z,70.63
2023-03-15T12:20:30.236Z,70.57
2023-03-15T12:23:21.132Z,70.40
2023-03-15T12:25:56.544Z,70.29
2023-03-15T12:28:33.352Z,70.16
2023-03-15T12:31:06.137Z,70.14
2023-03-15T12:33:46.420Z,70.09
2023-03-15T12:36:22.944Z,70.09
2023-03-15T12:39:05.092Z,70.01
2023-03-15T12:41:41.017Z,69.96
2023-03-15T12:44:40.821Z,69.77
2023-03-15T12:47:11.774Z,69.58
2023-03-15T12:49:44.541Z,69.47
2023-03-15T12:52:37.194Z,69.22
2023-03-15T13:06:17.412Z,69.08
2023-03-15T13:08:53.616Z,69.04
2023-03-15T13:11:32.276Z,68.91
2023-03-15T13:14:26.103Z,68.74
2023-03-15T13:17:12.445Z,68.60
2023-03-15T13:19:57.520Z,68.64
2023-03-15T13:22:56.634Z,68.78
2023-03-15T13:49:43.404Z,68.36
2023-03-15T13:52:15.534Z,68.22
2023-03-15T13:54:50.613Z,68.25
2023-03-15T13:57:22.842Z,68.27
2023-03-15T13:59:55.769Z,68.32
2023-03-15T14:02:29.875Z,68.33
2023-03-15T14:05:09.877Z,68.40
2023-03-15T14:07:41.813Z,68.44
2023-03-15T14:10:33.992Z,68.49
2023-03-15T14:13:24.171Z,68.60
2023-03-15T14:15:59.895Z,68.68
2023-03-15T14:18:34.579Z,68.90
2023-03-15T14:21:10.931Z,68.95
2023-03-15T14:23:43.876Z,68.91
2023-03-15T14:26:21.738Z,68.92
2023-03-15T14:29:03.200Z,68.88
2023-03-15T14:31:35.722Z,68.93
2023-03-15T14:34:13.570Z,68.91
2023-03-15T14:36:47.964Z,69.05
2023-03-15T14:39:23.025Z,68.88
2023-03-15T14:41:52.795Z,68.71
2023-03-15T14:44:28.988Z,68.42
2023-03-15T14:46:59.240Z,68.39
2023-03-15T14:49:30.819Z,68.31
2023-03-15T14:52:06.419Z,68.19
2023-03-15T14:54:36.980Z,68.11
2023-03-15T14:57:06.932Z,67.83
2023-03-15T14:59:36.672Z,67.64
2023-03-15T15:02:08.057Z,67.59
2023-03-15T15:04:39.651Z,67.48
2023-03-15T15:07:13.739Z,67.37
2023-03-15T15:09:49.482Z,67.33
2023-03-15T15:12:19.556Z,67.17
2023-03-15T15:14:49.349Z,67.21
2023-03-15T15:17:19.859Z,67.21
2023-03-15T15:19:49.600Z,67.11
2023-03-15T15:22:22.702Z,67.14
2023-03-15T15:24:52.519Z,67.19
2023-03-15T15:27:22.366Z,67.37
2023-03-15T15:29:52.459Z,67.43
2023-03-15T15:32:22.237Z,67.58
2023-03-15T15:34:54.986Z,67.68
2023-03-15T15:37:27.839Z,67.86
2023-03-15T15:39:57.971Z,67.84
2023-03-15T15:42:27.769Z,67.96
2023-03-15T15:44:57.529Z,68.10
2023-03-15T15:47:27.297Z,68.18
2023-03-15T15:49:57.020Z,68.37
2023-03-15T15:52:29.454Z,68.45
2023-03-15T15:55:00.649Z,68.70
2023-03-15T15:57:31.330Z,68.77
2023-03-15T16:00:01.501Z,69.05
2023-03-15T16:02:31.365Z,69.26
2023-03-15T16:05:01.164Z,69.34
2023-03-15T16:07:33.584Z,69.55
2023-03-15T16:10:03.730Z,69.66
2023-03-15T16:12:33.682Z,69.86
2023-03-15T16:15:03.865Z,69.94
2023-03-15T16:17:33.617Z,70.19
2023-03-15T16:20:09.350Z,70.38
2023-03-15T16:22:45.616Z,70.54
2023-03-15T16:25:23.754Z,70.66
2023-03-15T16:27:53.746Z,70.80
2023-03-15T16:30:25.608Z,70.96
2023-03-15T16:32:56.061Z,71.19
2023-03-15T16:35:28.345Z,71.36
2023-03-15T16:38:02.278Z,71.69
2023-03-15T16:40:38.132Z,71.88
2023-03-15T16:43:09.302Z,72.03
2023-03-15T16:45:39.052Z,72.18
2023-03-15T16:48:09.119Z,72.38
2023-03-15T16:50:39.719Z,72.54
2023-03-15T16:53:15.701Z,72.69
2023-03-15T16:55:46.288Z,72.79
2023-03-15T16:58:22.685Z,73.03
2023-03-15T17:00:52.424Z,73.22
2023-03-15T17:03:22.167Z,73.34
2023-03-15T17:05:52.694Z,73.62
2023-03-15T17:08:28.040Z,73.74
2023-03-15T17:10:57.813Z,73.90
2023-03-15T17:13:32.227Z,74.05
2023-03-15T17:16:02.137Z,74.35
2023-03-15T17:18:37.110Z,74.52
2023-03-15T17:21:09.248Z,74.57
2023-03-15T17:23:42.483Z,74.79
2023-03-15T17:26:15.440Z,74.95
2023-03-15T17:28:48.317Z,75.08
2023-03-15T17:31:24.860Z,75.20
2023-03-15T17:33:55.375Z,75.27
2023-03-15T17:36:26.574Z,75.47
2023-03-15T17:38:59.860Z,75.59
2023-03-15T17:41:32.220Z,75.61
2023-03-15T17:44:02.509Z,75.66
2023-03-15T17:46:33.403Z,75.79
2023-03-15T17:49:05.055Z,75.93
2023-03-15T17:51:37.677Z,75.92
2023-03-15T17:54:17.006Z,75.91
2023-03-15T17:56:47.283Z,75.99
2023-03-15T17:59:17.880Z,76.08
2023-03-15T18:01:49.005Z,76.17
2023-03-15T18:04:19.098Z,76.14
2023-03-15T18:06:48.858Z,76.24
2023-03-15T18:09:22.379Z,76.29
2023-03-15T18:11:53.203Z,76.30
2023-03-15T18:14:22.999Z,76.39
2023-03-15T18:16:53.566Z,76.48
2023-03-15T18:19:23.717Z,76.48
2023-03-15T18:21:53.488Z,76.53
2023-03-15T18:24:25.944Z,76.56
2023-03-15T18:26:55.690Z,76.73
2023-03-15T18:29:27.839Z,76.76
2023-03-15T18:31:57.716Z,76.84
2023-03-15T18:34:27.522Z,76.98
2023-03-15T18:36:57.315Z,77.06
2023-03-15T18:39:32.826Z,77.08
2023-03-15T18:42:02.615Z,77.23
2023-03-15T18:44:32.361Z,77.30
2023-03-15T18:47:02.233Z,77.44
2023-03-15T18:49:32.751Z,77.38
2023-03-15T18:52:02.495Z,77.57
2023-03-15T18:54:34.988Z,77.63
2023-03-15T18:57:04.805Z,77.64
2023-03-15T18:59:34.549Z,77.82
2023-03-15T19:02:05.063Z,77.93
2023-03-15T19:04:34.872Z,78.08
2023-03-15T19:07:04.623Z,78.02
2023-03-15T19:09:36.991Z,78.23
2023-03-15T19:12:06.950Z,78.20
2023-03-15T19:14:36.716Z,78.41
2023-03-15T19:17:06.560Z,78.48
2023-03-15T19:19:36.355Z,78.50
2023-03-15T19:22:06.104Z,78.54
2023-03-15T19:24:39.110Z,78.71
2023-03-15T19:27:08.878Z,78.81
2023-03-15T19:29:38.845Z,78.80
2023-03-15T19:32:09.304Z,78.84
2023-03-15T19:34:39.077Z,79.04
2023-03-15T19:37:08.996Z,79.03
2023-03-15T19:39:42.558Z,79.10
2023-03-15T19:42:12.342Z,79.23
2023-03-15T19:44:43.725Z,79.34
2023-03-15T19:47:13.489Z,79.33
2023-03-15T19:49:43.329Z,79.46
2023-03-15T19:52:15.841Z,79.59
2023-03-15T19:54:49.045Z,79.70
2023-03-15T19:57:18.857Z,79.95
2023-03-15T19:59:49.825Z,79.90
2023-03-15T20:02:19.887Z,80.09
2023-03-15T20:04:49.761Z,80.12
2023-03-15T20:07:20.102Z,80.27
2023-03-15T20:09:53.918Z,80.38
2023-03-15T20:12:23.695Z,80.40
2023-03-15T20:14:53.430Z,80.53
2023-03-15T20:17:28.288Z,80.64
2023-03-15T20:20:10.440Z,80.78
2023-03-15T20:22:41.503Z,80.86
2023-03-15T20:25:16.161Z,80.97
2023-03-15T20:27:46.297Z,81.12
2023-03-15T20:30:18.227Z,81.21
2023-03-15T20:32:48.172Z,81.27
2023-03-15T20:35:17.961Z,81.45
2023-03-15T20:37:48.131Z,81.46
2023-03-15T20:40:21.262Z,81.54
2023-03-15T20:42:55.117Z,81.70
2023-03-15T20:45:24.891Z,81.88
2023-03-15T20:47:54.624Z,81.94
2023-03-15T20:50:24.682Z,81.97
2023-03-15T20:52:54.625Z,81.91
2023-03-15T20:55:27.004Z,82.16
2023-03-15T20:57:56.776Z,82.21
2023-03-15T21:00:27.302Z,82.16
2023-03-15T21:02:57.142Z,82.35
2023-03-15T21:05:28.031Z,82.30
2023-03-15T21:07:57.864Z,82.50
2023-03-15T21:10:30.278Z,82.53
2023-03-15T21:13:00.034Z,82.74
2023-03-15T21:15:29.901Z,82.62
2023-03-15T21:17:59.657Z,82.73
2023-03-15T21:20:29.514Z,82.92
2023-03-15T21:22:59.300Z,82.87
2023-03-15T21:25:36.235Z,82.91
2023-03-15T21:28:06.250Z,82.88
2023-03-15T21:30:36.700Z,82.92
2023-03-15T21:33:06.655Z,82.96
2023-03-15T21:35:37.267Z,82.98
2023-03-15T21:38:07.058Z,83.09
2023-03-15T21:40:39.491Z,82.86
2023-03-15T21:43:09.620Z,82.96
2023-03-15T21:45:41.811Z,82.93
2023-03-15T21:48:11.886Z,82.92
2023-03-15T21:50:41.674Z,83.09
2023-03-15T21:53:11.461Z,83.06
2023-03-15T21:55:46.319Z,83.05
2023-03-15T21:58:16.355Z,82.82
2023-03-15T22:00:46.187Z,82.84
2023-03-15T22:03:16.872Z,82.78
2023-03-15T22:05:48.436Z,82.73
2023-03-15T22:08:18.279Z,82.85
2023-03-15T22:10:53.519Z,82.70
2023-03-15T22:16:22.200Z,82.67
2023-03-15T22:18:56.117Z,82.77
2023-03-15T22:21:25.971Z,82.79
2023-03-15T22:23:55.710Z,82.83
2023-03-15T22:26:28.228Z,82.79
2023-03-15T22:28:57.986Z,82.78
2023-03-15T22:31:31.419Z,82.79
2023-03-15T22:34:03.039Z,82.89
2023-03-15T22:36:35.364Z,83.00
2023-03-15T22:39:06.250Z,82.91
2023-03-15T22:41:39.020Z,83.00
2023-03-15T22:44:08.996Z,83.11
2023-03-15T22:46:38.887Z,83.11
2023-03-15T22:49:08.640Z,83.06
2023-03-15T22:51:40.484Z,83.11
2023-03-15T22:54:10.300Z,83.38
2023-03-15T22:56:43.476Z,83.38
2023-03-15T22:59:13.237Z,83.45
2023-03-15T23:01:43.019Z,83.56
2023-03-15T23:04:12.909Z,83.44
2023-03-15T23:06:42.729Z,83.58
2023-03-15T23:09:12.487Z,83.65
2023-03-15T23:11:45.626Z,83.61
2023-03-15T23:14:15.387Z,83.61
2023-03-15T23:16:45.459Z,83.71
2023-03-15T23:19:16.143Z,83.79
2023-03-15T23:21:45.903Z,83.85
2023-03-15T23:24:18.851Z,83.92
2023-03-15T23:26:56.546Z,83.81
2023-03-15T23:29:26.334Z,83.78
2023-03-15T23:31:56.170Z,83.75
2023-03-15T23:34:27.647Z,83.82
2023-03-15T23:42:59.363Z,83.83
2023-03-15T23:45:30.945Z,83.82
2023-03-15T23:48:02.472Z,83.63
2023-03-15T23:50:32.490Z,83.76
2023-03-15T23:53:02.260Z,83.83
2023-03-15T23:55:35.673Z,83.72
2023-03-15T23:58:08.647Z,83.71
